Погода Беховона 2 недели

Смоленская область, Россия

24 мая-05 июня
  • 24мая
    Сегодня
    +8°
    +20°
    Практически безоблачно
    ВремяПогодаТемператураВлажностьДавлениеВетер, м/сВероятность осадков
    00:00Ясно и безоблачно+13°C53 %755 мм5.2 м/с2 %
    03:00Ясно и безоблачно+10°C53 %756 мм4.8 м/с2 %
    06:00Ясно и безоблачно+9°C56 %757 мм4.5 м/с2 %
    09:00Ясно и безоблачно+14°C49 %757 мм4.7 м/с2 %
    12:00Ясно и безоблачно+19°C41 %757 мм5.1 м/с2 %
    15:00Практически безоблачно+20°C35 %757 мм5.0 м/с2 %
    18:00Ясно и безоблачно+19°C38 %756 мм4.5 м/с2 %
    21:00Ясно и безоблачно+15°C56 %756 мм3.2 м/с2 %
  • 25мая
    Суббота
    +8°
    +23°
    Ясно и безоблачно
    ВремяПогодаТемператураВлажностьДавлениеВетер, м/сВероятность осадков
    00:00Ясно и безоблачно+11°C62 %757 мм3.5 м/с2 %
    03:00Ясно и безоблачно+9°C62 %757 мм3.3 м/с2 %
    06:00Ясно и безоблачно+9°C61 %757 мм2.9 м/с2 %
    09:00Ясно и безоблачно+16°C49 %757 мм2.5 м/с2 %
    12:00Ясно и безоблачно+21°C33 %757 мм2.5 м/с2 %
    15:00Ясно и безоблачно+22°C32 %756 мм2.2 м/с2 %
    18:00Практически безоблачно+21°C35 %755 мм2.0 м/с2 %
    21:00Ясно и безоблачно+15°C66 %754 мм2.5 м/с2 %
  • 26мая
    Воскресенье
    +11°
    +24°
    Ясно и безоблачно
    ВремяПогодаТемператураВлажностьДавлениеВетер, м/сВероятность осадков
    00:00Облачно с прояснениями+11°C81 %754 мм1.7 м/с2 %
    03:00Облачно с прояснениями+10°C80 %754 мм1.9 м/с2 %
    06:00Облачно с прояснениями+11°C79 %754 мм0.8 м/с2 %
    09:00Небольшая облачность+19°C50 %754 мм0.9 м/с2 %
    12:00Практически безоблачно+22°C36 %754 мм1.6 м/с2 %
    15:00Ясно и безоблачно+24°C37 %753 мм1.6 м/с2 %
    18:00Практически безоблачно+23°C37 %752 мм2.2 м/с2 %
    21:00Ясно и безоблачно+16°C63 %752 мм1.6 м/с2 %
  • 27мая
    Понедельник
    +12°
    +25°
    Практически безоблачно
    ВремяПогодаТемператураВлажностьДавлениеВетер, м/сВероятность осадков
    00:00Ясно и безоблачно+13°C81 %752 мм2.5 м/с2 %
    03:00Ясно и безоблачно+11°C88 %752 мм2.1 м/с2 %
    06:00Практически безоблачно+13°C84 %753 мм2.0 м/с2 %
    09:00Ясно и безоблачно+20°C64 %754 мм2.6 м/с2 %
    12:00Практически безоблачно+24°C49 %754 мм3.4 м/с13 %
    15:00Практически безоблачно+24°C55 %754 мм3.2 м/с37 %
    18:00Ясно и безоблачно+23°C55 %754 мм4.2 м/с37 %
    21:00Ясно и безоблачно+19°C63 %754 мм3.3 м/с4 %
Мы используем cookies
Соглашаюсь